UASS Airport Information

Runway Information
Runway 02 Length 3270 ft width 253 ft
Elevation 695 ft Threshold 0 ft Heading 24
Runway 20 Length 3270 ft Width 253 ft
Elevation 695 ft Threshold 0 ft Heading 204
Runway 08 Length 10159 ft width 145 ft
Elevation 761 ft Threshold 0 ft Heading 84
Runway 26 Length 10159 ft Width 145 ft
Elevation 673 ft Threshold 0 ft Heading 264
Airport Frequencies
Type TWR Name TWR Frequency 128 MHZ
Airport Navaids
Type NDB Name Semipalatinsk Frequency 418 KHZ
Airport Weather Information & NOTAM
ADDS - METARS form results

(0842 UTC 24 July 2021)
Data provider http://aviationweather.gov/metar/data/
 
METAR text: UASS 240830Z VRB01MPS CAVOK 30/12 Q1006 R26/0///60 NOSIG RMK QFE736/0982
Conditions at: UASS (SEMIPALATINSK , KZ) observed 0830 UTC 24 July 2021
Temperature: 30.0°C (86°F)
Dewpoint: 12.0°C (54°F) [RH = 33%]
Pressure (altimeter): 29.70 inches Hg (1006.0 mb)
Winds: variable direction winds at 2 MPH (2 knots; 1.0 m/s)
Visibility: 6 or more miles (10+ km)
Ceiling: ceiling and visibility are OK
Clouds: unknown
Weather: no significant weather observed at this time

METAR text: UASS 240800Z 33003MPS CAVOK 30/12 Q1006 R08/0///60 NOSIG RMK QFE734/0979
Conditions at: UASS (SEMIPALATINSK , KZ) observed 0800 UTC 24 July 2021
Temperature: 30.0°C (86°F)
Dewpoint: 12.0°C (54°F) [RH = 33%]
Pressure (altimeter): 29.70 inches Hg (1006.0 mb)
Winds: from the NNW (330 degrees) at 7 MPH (6 knots; 3.1 m/s)
Visibility: 6 or more miles (10+ km)
Ceiling: ceiling and visibility are OK
Clouds: unknown
Weather: no significant weather observed at this time

Forecast for: UASS (SEMIPALATINSK , KZ)
Text: TAF UASS 240800Z 2409/2418 36004G09MPS 9999 SCT040 BKN100
Forecast period: 0900 to 1800 UTC 24 July 2021
Forecast type: FROM: standard forecast or significant change
Winds: from the N (360 degrees) at 9 MPH (8 knots; 4.1 m/s)
gusting to 20 MPH (17 knots; 8.7 m/s)
Visibility: 6 or more miles (10+ km)
Ceiling: 10000 feet AGL
Clouds: scattered clouds at 4000 feet AGL
broken clouds at 10000 feet AGL
Weather: no significant weather forecast for this period
Text: PROB40
Forecast period: 0900 to 1500 UTC 24 July 2021
Forecast type: TEMPORARY: The following changes expected for less than half the time period
Winds: variable direction winds at 33 MPH (29 knots; 14.9 m/s)
Visibility: 1.93 miles (3.11 km)
Ceiling: 3000 feet AGL
Clouds: broken clouds at 3000 feet AGL
Weather: -TSRA SQ  (light rain associated with thunderstorm(s), squal)